sensor_id;sensor_type;location;lat;lon;timestamp;pressure;altitude;pressure_sealevel;temperature;humidity
47374;BME280;33123;50.118;10.272;2022-11-22T00:01:18;95815.88;;;5.98;67.07
47374;BME280;33123;50.118;10.272;2022-11-22T00:03:46;95809.09;;;6.07;67.07
47374;BME280;33123;50.118;10.272;2022-11-22T00:06:12;95803.06;;;6.06;67.10
47374;BME280;33123;50.118;10.272;2022-11-22T00:08:39;95796.78;;;6.07;67.24
47374;BME280;33123;50.118;10.272;2022-11-22T00:11:06;95794.69;;;6.09;67.53
47374;BME280;33123;50.118;10.272;2022-11-22T00:13:33;95805.91;;;6.15;67.05
47374;BME280;33123;50.118;10.272;2022-11-22T00:16:01;95810.91;;;6.12;67.12
47374;BME280;33123;50.118;10.272;2022-11-22T00:18:28;95801.75;;;6.14;67.15
47374;BME280;33123;50.118;10.272;2022-11-22T00:21:03;95793.88;;;6.19;67.01
47374;BME280;33123;50.118;10.272;2022-11-22T00:23:30;95797.28;;;6.20;66.88
47374;BME280;33123;50.118;10.272;2022-11-22T00:25:57;95797.00;;;6.21;67.16
47374;BME280;33123;50.118;10.272;2022-11-22T00:28:24;95795.72;;;6.24;67.19
47374;BME280;33123;50.118;10.272;2022-11-22T00:30:50;95801.22;;;6.22;67.30
47374;BME280;33123;50.118;10.272;2022-11-22T00:33:17;95790.22;;;6.25;66.97
47374;BME280;33123;50.118;10.272;2022-11-22T00:35:44;95778.69;;;6.21;66.55
47374;BME280;33123;50.118;10.272;2022-11-22T00:38:12;95777.94;;;6.16;66.59
47374;BME280;33123;50.118;10.272;2022-11-22T00:40:38;95792.06;;;6.20;67.08
47374;BME280;33123;50.118;10.272;2022-11-22T00:43:05;95801.47;;;6.21;66.84
47374;BME280;33123;50.118;10.272;2022-11-22T00:45:32;95796.50;;;6.14;67.03
47374;BME280;33123;50.118;10.272;2022-11-22T00:47:58;95783.69;;;6.18;66.98
47374;BME280;33123;50.118;10.272;2022-11-22T00:50:25;95778.97;;;6.20;66.87
47374;BME280;33123;50.118;10.272;2022-11-22T00:52:51;95761.22;;;6.17;67.25
47374;BME280;33123;50.118;10.272;2022-11-22T00:55:19;95764.06;;;6.20;67.20
47374;BME280;33123;50.118;10.272;2022-11-22T00:57:46;95762.00;;;6.17;66.94
47374;BME280;33123;50.118;10.272;2022-11-22T01:00:13;95762.25;;;6.16;67.89
47374;BME280;33123;50.118;10.272;2022-11-22T01:02:39;95764.84;;;6.11;67.31
47374;BME280;33123;50.118;10.272;2022-11-22T01:05:07;95762.53;;;6.04;67.34
47374;BME280;33123;50.118;10.272;2022-11-22T01:07:33;95759.41;;;6.02;67.48
47374;BME280;33123;50.118;10.272;2022-11-22T01:10:00;95763.06;;;6.01;67.46
47374;BME280;33123;50.118;10.272;2022-11-22T01:12:28;95774.03;;;5.98;67.33
47374;BME280;33123;50.118;10.272;2022-11-22T01:14:55;95768.53;;;6.04;67.25
47374;BME280;33123;50.118;10.272;2022-11-22T01:17:21;95768.28;;;6.01;67.57
47374;BME280;33123;50.118;10.272;2022-11-22T01:19:48;95766.19;;;6.03;67.27
47374;BME280;33123;50.118;10.272;2022-11-22T01:22:15;95768.28;;;6.01;67.85
47374;BME280;33123;50.118;10.272;2022-11-22T01:24:41;95759.91;;;5.99;67.59
47374;BME280;33123;50.118;10.272;2022-11-22T01:27:08;95747.63;;;6.04;67.69
47374;BME280;33123;50.118;10.272;2022-11-22T01:29:36;95748.16;;;6.06;67.66
47374;BME280;33123;50.118;10.272;2022-11-22T01:32:03;95747.38;;;6.01;67.72
47374;BME280;33123;50.118;10.272;2022-11-22T01:34:29;95752.06;;;5.99;67.91
47374;BME280;33123;50.118;10.272;2022-11-22T01:36:56;95747.38;;;6.06;67.51
47374;BME280;33123;50.118;10.272;2022-11-22T01:39:23;95740.31;;;6.06;67.36
47374;BME280;33123;50.118;10.272;2022-11-22T01:41:49;95727.47;;;6.05;67.86
47374;BME280;33123;50.118;10.272;2022-11-22T01:44:17;95684.13;;;5.83;67.84
47374;BME280;33123;50.118;10.272;2022-11-22T01:46:47;95723.31;;;5.99;67.83
47374;BME280;33123;50.118;10.272;2022-11-22T01:49:22;95736.63;;;6.07;67.43
47374;BME280;33123;50.118;10.272;2022-11-22T01:51:52;95726.97;;;6.08;67.59
47374;BME280;33123;50.118;10.272;2022-11-22T01:54:22;95741.84;;;6.13;67.56
47374;BME280;33123;50.118;10.272;2022-11-22T01:56:53;95740.31;;;6.06;67.52
47374;BME280;33123;50.118;10.272;2022-11-22T01:59:24;95740.03;;;6.13;67.36
47374;BME280;33123;50.118;10.272;2022-11-22T02:01:53;95738.47;;;6.12;67.09
47374;BME280;33123;50.118;10.272;2022-11-22T02:04:22;95733.47;;;6.11;67.11
47374;BME280;33123;50.118;10.272;2022-11-22T02:06:52;95715.44;;;6.04;67.46
47374;BME280;33123;50.118;10.272;2022-11-22T02:09:23;95722.25;;;6.05;67.53
47374;BME280;33123;50.118;10.272;2022-11-22T02:11:53;95719.13;;;6.03;67.38
47374;BME280;33123;50.118;10.272;2022-11-22T02:14:23;95680.19;;;5.81;67.23
47374;BME280;33123;50.118;10.272;2022-11-22T02:16:50;95718.06;;;6.04;67.27
47374;BME280;33123;50.118;10.272;2022-11-22T02:19:24;95720.16;;;6.07;67.70
47374;BME280;33123;50.118;10.272;2022-11-22T02:21:58;95731.66;;;6.11;67.63
47374;BME280;33123;50.118;10.272;2022-11-22T02:24:30;95728.53;;;6.09;67.19
47374;BME280;33123;50.118;10.272;2022-11-22T02:27:03;95730.09;;;6.10;67.47
47374;BME280;33123;50.118;10.272;2022-11-22T02:29:30;95730.34;;;6.08;67.15
47374;BME280;33123;50.118;10.272;2022-11-22T02:31:57;95733.22;;;6.12;67.25
47374;BME280;33123;50.118;10.272;2022-11-22T02:34:24;95733.75;;;6.14;66.94
47374;BME280;33123;50.118;10.272;2022-11-22T02:36:52;95729.81;;;6.17;67.15
47374;BME280;33123;50.118;10.272;2022-11-22T02:39:22;95724.06;;;6.15;67.43
47374;BME280;33123;50.118;10.272;2022-11-22T02:41:52;95709.69;;;6.17;67.41
47374;BME280;33123;50.118;10.272;2022-11-22T02:44:22;95711.25;;;6.18;67.06
47374;BME280;33123;50.118;10.272;2022-11-22T02:46:51;95711.25;;;6.18;67.05
47374;BME280;33123;50.118;10.272;2022-11-22T02:49:19;95711.75;;;6.15;67.14
47374;BME280;33123;50.118;10.272;2022-11-22T02:51:46;95672.84;;;5.93;67.51
47374;BME280;33123;50.118;10.272;2022-11-22T02:54:13;95707.31;;;6.16;67.09
47374;BME280;33123;50.118;10.272;2022-11-22T02:56:40;95709.13;;;6.20;67.10
47374;BME280;33123;50.118;10.272;2022-11-22T02:59:06;95715.69;;;6.18;67.47
47374;BME280;33123;50.118;10.272;2022-11-22T03:01:35;95665.28;;;5.81;67.04
47374;BME280;33123;50.118;10.272;2022-11-22T03:04:02;95720.66;;;6.14;67.74
47374;BME280;33123;50.118;10.272;2022-11-22T03:06:29;95731.91;;;6.15;67.43
47374;BME280;33123;50.118;10.272;2022-11-22T03:08:55;95744.19;;;6.19;67.05
47374;BME280;33123;50.118;10.272;2022-11-22T03:11:22;95733.75;;;6.09;67.98
47374;BME280;33123;50.118;10.272;2022-11-22T03:13:49;95737.13;;;6.15;67.48
47374;BME280;33123;50.118;10.272;2022-11-22T03:16:16;95733.47;;;6.16;67.53
47374;BME280;33123;50.118;10.272;2022-11-22T03:18:44;95737.41;;;6.18;67.42
47374;BME280;33123;50.118;10.272;2022-11-22T03:21:10;95734.50;;;6.20;67.60
47374;BME280;33123;50.118;10.272;2022-11-22T03:23:37;95741.31;;;6.21;67.14
47374;BME280;33123;50.118;10.272;2022-11-22T03:26:06;95734.00;;;6.23;67.51
47374;BME280;33123;50.118;10.272;2022-11-22T03:28:33;95741.28;;;6.26;67.45
47374;BME280;33123;50.118;10.272;2022-11-22T03:30:59;95726.13;;;6.28;67.35
47374;BME280;33123;50.118;10.272;2022-11-22T03:33:26;95735.00;;;6.32;66.95
47374;BME280;33123;50.118;10.272;2022-11-22T03:35:55;95730.28;;;6.34;67.44
47374;BME280;33123;50.118;10.272;2022-11-22T03:38:23;95714.81;;;6.38;67.78
47374;BME280;33123;50.118;10.272;2022-11-22T03:40:49;95722.66;;;6.43;68.21
47374;BME280;33123;50.118;10.272;2022-11-22T03:43:16;95723.44;;;6.43;67.36
47374;BME280;33123;50.118;10.272;2022-11-22T03:45:43;95726.31;;;6.47;67.14
47374;BME280;33123;50.118;10.272;2022-11-22T03:48:10;95717.69;;;6.46;67.37
47374;BME280;33123;50.118;10.272;2022-11-22T03:50:37;95584.84;;;5.53;67.35
47374;BME280;33123;50.118;10.272;2022-11-22T03:53:05;95723.69;;;6.47;67.94
47374;BME280;33123;50.118;10.272;2022-11-22T03:55:32;95731.03;;;6.45;67.33
47374;BME280;33123;50.118;10.272;2022-11-22T03:57:59;95724.22;;;6.44;67.32
47374;BME280;33123;50.118;10.272;2022-11-22T04:00:25;95732.59;;;6.46;67.45
47374;BME280;33123;50.118;10.272;2022-11-22T04:02:52;95727.38;;;6.46;67.93
47374;BME280;33123;50.118;10.272;2022-11-22T04:05:18;95719.53;;;6.46;68.29
47374;BME280;33123;50.118;10.272;2022-11-22T04:07:45;95733.13;;;6.43;68.63
47374;BME280;33123;50.118;10.272;2022-11-22T04:10:14;95732.88;;;6.44;68.40
47374;BME280;33123;50.118;10.272;2022-11-22T04:12:41;95735.72;;;6.48;68.83
47374;BME280;33123;50.118;10.272;2022-11-22T04:15:08;95746.19;;;6.48;68.88
47374;BME280;33123;50.118;10.272;2022-11-22T04:17:36;95740.69;;;6.49;67.75
47374;BME280;33123;50.118;10.272;2022-11-22T04:20:07;95714.34;;;6.30;68.36
47374;BME280;33123;50.118;10.272;2022-11-22T04:22:54;95737.28;;;6.49;68.59
47374;BME280;33123;50.118;10.272;2022-11-22T04:25:24;95743.84;;;6.46;68.65
47374;BME280;33123;50.118;10.272;2022-11-22T04:27:50;95738.34;;;6.48;68.43
47374;BME280;33123;50.118;10.272;2022-11-22T04:30:16;95740.47;;;6.46;67.93
47374;BME280;33123;50.118;10.272;2022-11-22T04:32:43;95756.66;;;6.48;67.54
47374;BME280;33123;50.118;10.272;2022-11-22T04:35:13;95737.38;;;6.28;68.03
47374;BME280;33123;50.118;10.272;2022-11-22T04:37:40;95756.69;;;6.38;68.12
47374;BME280;33123;50.118;10.272;2022-11-22T04:40:09;95764.56;;;6.32;68.08
47374;BME280;33123;50.118;10.272;2022-11-22T04:42:37;95753.84;;;6.29;67.75
47374;BME280;33123;50.118;10.272;2022-11-22T04:45:21;95752.81;;;6.25;67.87
47374;BME280;33123;50.118;10.272;2022-11-22T04:47:48;95756.75;;;6.27;68.66
47374;BME280;33123;50.118;10.272;2022-11-22T04:50:28;95766.91;;;6.34;68.76
47374;BME280;33123;50.118;10.272;2022-11-22T04:53:13;95773.44;;;6.37;68.49
47374;BME280;33123;50.118;10.272;2022-11-22T04:55:40;95771.88;;;6.41;67.92
47374;BME280;33123;50.118;10.272;2022-11-22T04:58:09;95768.75;;;6.39;67.86
47374;BME280;33123;50.118;10.272;2022-11-22T05:00:36;95771.88;;;6.41;68.18
47374;BME280;33123;50.118;10.272;2022-11-22T05:03:03;95762.47;;;6.34;68.10
47374;BME280;33123;50.118;10.272;2022-11-22T05:05:33;95769.25;;;6.35;68.45
47374;BME280;33123;50.118;10.272;2022-11-22T05:07:59;95778.16;;;6.40;68.51
47374;BME280;33123;50.118;10.272;2022-11-22T05:10:26;95795.16;;;6.32;69.00
47374;BME280;33123;50.118;10.272;2022-11-22T05:12:53;95795.41;;;6.46;69.29
47374;BME280;33123;50.118;10.272;2022-11-22T05:15:21;95794.09;;;6.48;68.50
47374;BME280;33123;50.118;10.272;2022-11-22T05:17:48;95787.78;;;6.54;68.59
47374;BME280;33123;50.118;10.272;2022-11-22T05:20:14;95786.47;;;6.57;68.85
47374;BME280;33123;50.118;10.272;2022-11-22T05:22:41;95777.84;;;6.61;68.52
47374;BME280;33123;50.118;10.272;2022-11-22T05:25:25;95762.34;;;6.65;68.84
47374;BME280;33123;50.118;10.272;2022-11-22T05:27:52;95767.06;;;6.68;69.41
47374;BME280;33123;50.118;10.272;2022-11-22T05:30:20;95771.53;;;6.68;68.81
47374;BME280;33123;50.118;10.272;2022-11-22T05:32:47;95774.66;;;6.70;68.49
47374;BME280;33123;50.118;10.272;2022-11-22T05:35:14;95780.66;;;6.70;68.00
47374;BME280;33123;50.118;10.272;2022-11-22T05:37:40;95783.25;;;6.75;68.30
47374;BME280;33123;50.118;10.272;2022-11-22T05:40:08;95789.81;;;6.78;68.54
47374;BME280;33123;50.118;10.272;2022-11-22T05:42:35;95793.22;;;6.78;68.08
47374;BME280;33123;50.118;10.272;2022-11-22T05:45:02;95792.16;;;6.74;68.51
47374;BME280;33123;50.118;10.272;2022-11-22T05:47:33;95793.72;;;6.80;68.96
47374;BME280;33123;50.118;10.272;2022-11-22T05:50:00;95800.00;;;6.84;68.25
47374;BME280;33123;50.118;10.272;2022-11-22T05:52:26;95806.50;;;6.87;68.03
47374;BME280;33123;50.118;10.272;2022-11-22T05:54:53;95798.41;;;6.88;68.15
47374;BME280;33123;50.118;10.272;2022-11-22T05:57:20;95803.09;;;6.92;68.36
47374;BME280;33123;50.118;10.272;2022-11-22T05:59:46;95804.22;;;6.75;69.13
47374;BME280;33123;50.118;10.272;2022-11-22T06:02:13;95801.09;;;6.73;69.47
47374;BME280;33123;50.118;10.272;2022-11-22T06:04:41;95803.16;;;6.71;69.79
47374;BME280;33123;50.118;10.272;2022-11-22T06:07:07;95807.13;;;6.69;69.69
47374;BME280;33123;50.118;10.272;2022-11-22T06:09:34;95799.00;;;6.65;70.16
47374;BME280;33123;50.118;10.272;2022-11-22T06:12:01;95798.22;;;6.65;70.49
47374;BME280;33123;50.118;10.272;2022-11-22T06:14:27;95798.50;;;6.58;70.30
47374;BME280;33123;50.118;10.272;2022-11-22T06:16:54;95800.34;;;6.63;70.91
47374;BME280;33123;50.118;10.272;2022-11-22T06:19:21;95801.13;;;6.58;71.22
47374;BME280;33123;50.118;10.272;2022-11-22T06:21:48;95811.31;;;6.59;70.98
47374;BME280;33123;50.118;10.272;2022-11-22T06:24:15;95818.94;;;6.61;71.10
47374;BME280;33123;50.118;10.272;2022-11-22T06:26:42;95815.78;;;6.59;71.14
47374;BME280;33123;50.118;10.272;2022-11-22T06:29:09;95819.94;;;6.60;71.29
47374;BME280;33123;50.118;10.272;2022-11-22T06:31:36;95815.78;;;6.59;71.77
47374;BME280;33123;50.118;10.272;2022-11-22T06:34:02;95819.94;;;6.65;71.84
47374;BME280;33123;50.118;10.272;2022-11-22T06:36:30;95822.31;;;6.61;71.96
47374;BME280;33123;50.118;10.272;2022-11-22T06:38:59;95826.25;;;6.59;72.42
47374;BME280;33123;50.118;10.272;2022-11-22T06:41:29;95835.44;;;6.56;72.37
47374;BME280;33123;50.118;10.272;2022-11-22T06:43:56;95836.72;;;6.59;72.75
47374;BME280;33123;50.118;10.272;2022-11-22T06:46:25;95842.47;;;6.61;72.50
47374;BME280;33123;50.118;10.272;2022-11-22T06:48:52;95842.47;;;6.61;72.80
47374;BME280;33123;50.118;10.272;2022-11-22T06:51:20;95856.38;;;6.41;73.28
47374;BME280;33123;50.118;10.272;2022-11-22T06:53:48;95837.84;;;6.27;73.76
47374;BME280;33123;50.118;10.272;2022-11-22T06:56:19;95865.00;;;6.52;73.30
47374;BME280;33123;50.118;10.272;2022-11-22T06:58:47;95871.28;;;6.51;74.09
47374;BME280;33123;50.118;10.272;2022-11-22T07:01:19;95877.53;;;6.55;73.79
47374;BME280;33123;50.118;10.272;2022-11-22T07:03:47;95880.44;;;6.53;73.33
47374;BME280;33123;50.118;10.272;2022-11-22T07:06:15;95882.00;;;6.54;73.78
47374;BME280;33123;50.118;10.272;2022-11-22T07:08:42;95883.31;;;6.62;73.68
47374;BME280;33123;50.118;10.272;2022-11-22T07:11:10;95883.31;;;6.67;73.55
47374;BME280;33123;50.118;10.272;2022-11-22T07:13:39;95884.84;;;6.73;74.07
47374;BME280;33123;50.118;10.272;2022-11-22T07:16:07;95886.69;;;6.78;73.67
47374;BME280;33123;50.118;10.272;2022-11-22T07:18:35;95880.63;;;6.82;73.94
47374;BME280;33123;50.118;10.272;2022-11-22T07:21:03;95870.91;;;6.88;73.41
47374;BME280;33123;50.118;10.272;2022-11-22T07:23:30;95874.31;;;6.94;74.12
47374;BME280;33123;50.118;10.272;2022-11-22T07:25:57;95874.28;;;6.99;73.53
47374;BME280;33123;50.118;10.272;2022-11-22T07:28:24;95883.97;;;7.03;73.53
47374;BME280;33123;50.118;10.272;2022-11-22T07:30:57;95878.22;;;7.06;73.01
47374;BME280;33123;50.118;10.272;2022-11-22T07:33:23;95890.75;;;7.14;73.09
47374;BME280;33123;50.118;10.272;2022-11-22T07:35:50;95898.88;;;7.18;73.19
47374;BME280;33123;50.118;10.272;2022-11-22T07:38:17;95904.88;;;7.24;72.84
47374;BME280;33123;50.118;10.272;2022-11-22T07:40:43;95905.09;;;7.27;72.40
47374;BME280;33123;50.118;10.272;2022-11-22T07:43:10;95918.72;;;7.29;71.78
47374;BME280;33123;50.118;10.272;2022-11-22T07:45:36;95928.16;;;7.30;71.71
47374;BME280;33123;50.118;10.272;2022-11-22T07:48:05;95942.03;;;7.31;71.77
47374;BME280;33123;50.118;10.272;2022-11-22T07:50:32;95926.88;;;7.28;71.36
47374;BME280;33123;50.118;10.272;2022-11-22T07:52:59;95942.03;;;7.31;71.67
47374;BME280;33123;50.118;10.272;2022-11-22T07:55:26;95963.56;;;7.28;71.72
47374;BME280;33123;50.118;10.272;2022-11-22T07:57:53;95964.84;;;7.25;72.32
47374;BME280;33123;50.118;10.272;2022-11-22T08:00:20;95959.13;;;7.18;72.95
47374;BME280;33123;50.118;10.272;2022-11-22T08:02:46;95964.88;;;7.15;73.77
47374;BME280;33123;50.118;10.272;2022-11-22T08:05:15;95962.28;;;7.10;73.75
47374;BME280;33123;50.118;10.272;2022-11-22T08:07:44;95972.44;;;7.27;73.50
47374;BME280;33123;50.118;10.272;2022-11-22T08:10:11;95982.13;;;7.26;73.83
47374;BME280;33123;50.118;10.272;2022-11-22T08:12:38;95983.22;;;7.20;74.50
47374;BME280;33123;50.118;10.272;2022-11-22T08:15:05;95981.34;;;7.31;74.05
47374;BME280;33123;50.118;10.272;2022-11-22T08:17:32;95983.97;;;7.31;74.27
47374;BME280;33123;50.118;10.272;2022-11-22T08:19:59;95985.50;;;7.42;74.24
47374;BME280;33123;50.118;10.272;2022-11-22T08:22:27;95990.75;;;7.42;74.22
47374;BME280;33123;50.118;10.272;2022-11-22T08:24:53;95992.56;;;7.47;73.95
47374;BME280;33123;50.118;10.272;2022-11-22T08:27:20;95996.22;;;7.51;74.17
47374;BME280;33123;50.118;10.272;2022-11-22T08:29:46;95995.66;;;7.59;73.83
47374;BME280;33123;50.118;10.272;2022-11-22T08:32:13;96002.22;;;7.61;73.64
47374;BME280;33123;50.118;10.272;2022-11-22T08:34:40;95988.34;;;7.61;73.81
47374;BME280;33123;50.118;10.272;2022-11-22T08:37:06;96005.81;;;7.76;73.29
47374;BME280;33123;50.118;10.272;2022-11-22T08:39:35;96005.53;;;7.77;73.37
47374;BME280;33123;50.118;10.272;2022-11-22T08:42:01;96003.97;;;7.81;73.54
47374;BME280;33123;50.118;10.272;2022-11-22T08:44:28;96005.81;;;7.81;73.77
47374;BME280;33123;50.118;10.272;2022-11-22T08:46:54;96003.97;;;7.81;73.80
47374;BME280;33123;50.118;10.272;2022-11-22T08:49:21;96015.25;;;7.82;73.71
47374;BME280;33123;50.118;10.272;2022-11-22T08:51:48;96017.09;;;7.76;74.14
47374;BME280;33123;50.118;10.272;2022-11-22T08:54:15;96017.97;;;7.56;74.97
47374;BME280;33123;50.118;10.272;2022-11-22T08:56:43;96015.84;;;7.63;75.39
47374;BME280;33123;50.118;10.272;2022-11-22T08:59:09;96004.63;;;7.48;75.21
47374;BME280;33123;50.118;10.272;2022-11-22T09:01:36;96009.00;;;7.73;75.06
47374;BME280;33123;50.118;10.272;2022-11-22T09:04:04;96017.88;;;7.77;74.79
47374;BME280;33123;50.118;10.272;2022-11-22T09:06:30;96014.44;;;7.86;74.48
47374;BME280;33123;50.118;10.272;2022-11-22T09:08:57;96006.56;;;7.86;74.40
47374;BME280;33123;50.118;10.272;2022-11-22T09:11:23;96014.66;;;7.95;74.17
47374;BME280;33123;50.118;10.272;2022-11-22T09:13:51;96019.63;;;7.97;73.78
47374;BME280;33123;50.118;10.272;2022-11-22T09:16:19;96016.41;;;8.10;73.35
47374;BME280;33123;50.118;10.272;2022-11-22T09:18:46;95959.91;;;7.83;73.07
47374;BME280;33123;50.118;10.272;2022-11-22T09:21:14;96022.38;;;8.20;72.70
47374;BME280;33123;50.118;10.272;2022-11-22T09:23:43;96010.59;;;8.23;72.50
47374;BME280;33123;50.118;10.272;2022-11-22T09:26:13;96015.78;;;8.33;72.39
47374;BME280;33123;50.118;10.272;2022-11-22T09:28:40;96008.13;;;8.42;72.38
47374;BME280;33123;50.118;10.272;2022-11-22T09:31:10;96014.88;;;8.53;71.92
47374;BME280;33123;50.118;10.272;2022-11-22T09:33:40;96014.25;;;8.66;72.08
47374;BME280;33123;50.118;10.272;2022-11-22T09:36:10;96017.03;;;8.80;71.24
47374;BME280;33123;50.118;10.272;2022-11-22T09:38:37;96018.06;;;8.84;70.99
47374;BME280;33123;50.118;10.272;2022-11-22T09:41:19;96021.53;;;9.04;70.83
47374;BME280;33123;50.118;10.272;2022-11-22T09:43:56;96019.44;;;9.06;70.06
47374;BME280;33123;50.118;10.272;2022-11-22T09:46:34;96019.06;;;9.17;69.65
47374;BME280;33123;50.118;10.272;2022-11-22T09:49:19;95971.19;;;9.20;69.42
47374;BME280;33123;50.118;10.272;2022-11-22T09:51:54;96004.41;;;9.59;67.53
47374;BME280;33123;50.118;10.272;2022-11-22T09:54:26;96002.50;;;9.89;67.17
47374;BME280;33123;50.118;10.272;2022-11-22T09:56:58;96001.56;;;9.79;67.16
47374;BME280;33123;50.118;10.272;2022-11-22T09:59:29;95997.59;;;10.01;66.36
47374;BME280;33123;50.118;10.272;2022-11-22T10:02:03;96001.81;;;10.21;65.40
47374;BME280;33123;50.118;10.272;2022-11-22T10:04:34;96007.91;;;9.97;65.43
47374;BME280;33123;50.118;10.272;2022-11-22T10:07:07;96007.09;;;10.40;64.84
47374;BME280;33123;50.118;10.272;2022-11-22T10:09:41;96009.88;;;10.48;64.04
47374;BME280;33123;50.118;10.272;2022-11-22T10:12:18;96005.06;;;10.69;63.60
47374;BME280;33123;50.118;10.272;2022-11-22T10:14:50;96011.97;;;10.84;62.75
47374;BME280;33123;50.118;10.272;2022-11-22T10:17:27;96028.50;;;11.03;62.02
47374;BME280;33123;50.118;10.272;2022-11-22T10:20:03;96025.09;;;11.03;61.70
47374;BME280;33123;50.118;10.272;2022-11-22T10:22:32;96025.31;;;11.06;61.94
47374;BME280;33123;50.118;10.272;2022-11-22T10:25:02;96020.69;;;10.98;61.34
47374;BME280;33123;50.118;10.272;2022-11-22T10:27:31;96024.47;;;10.92;61.53
47374;BME280;33123;50.118;10.272;2022-11-22T10:30:02;96023.69;;;10.92;62.00
47374;BME280;33123;50.118;10.272;2022-11-22T10:32:35;95981.81;;;10.57;62.04
47374;BME280;33123;50.118;10.272;2022-11-22T10:35:21;96025.22;;;10.79;61.88
47374;BME280;33123;50.118;10.272;2022-11-22T10:37:54;96021.03;;;10.78;62.20
47374;BME280;33123;50.118;10.272;2022-11-22T10:40:32;96028.34;;;10.81;61.94
47374;BME280;33123;50.118;10.272;2022-11-22T10:43:22;96027.94;;;10.74;62.52
47374;BME280;33123;50.118;10.272;2022-11-22T10:45:55;96033.50;;;10.53;62.82
47374;BME280;33123;50.118;10.272;2022-11-22T10:48:33;96032.94;;;10.56;62.42
47374;BME280;33123;50.118;10.272;2022-11-22T10:51:09;96031.94;;;10.52;62.77
47374;BME280;33123;50.118;10.272;2022-11-22T10:53:47;96031.00;;;10.62;63.27
47374;BME280;33123;50.118;10.272;2022-11-22T10:56:24;96025.00;;;10.75;63.55
47374;BME280;33123;50.118;10.272;2022-11-22T10:59:08;96028.34;;;10.81;63.26
47374;BME280;33123;50.118;10.272;2022-11-22T11:01:45;96029.09;;;11.00;61.81
47374;BME280;33123;50.118;10.272;2022-11-22T11:04:17;96036.84;;;11.10;61.85
47374;BME280;33123;50.118;10.272;2022-11-22T11:06:47;96023.41;;;10.61;62.58
47374;BME280;33123;50.118;10.272;2022-11-22T11:09:18;96018.94;;;10.75;62.67
47374;BME280;33123;50.118;10.272;2022-11-22T11:11:48;96026.38;;;10.73;63.07
47374;BME280;33123;50.118;10.272;2022-11-22T11:14:24;96027.94;;;10.74;63.40
47374;BME280;33123;50.118;10.272;2022-11-22T11:16:54;96031.06;;;10.76;62.26
47374;BME280;33123;50.118;10.272;2022-11-22T11:19:23;96034.59;;;10.85;62.87
47374;BME280;33123;50.118;10.272;2022-11-22T11:21:56;96039.09;;;10.84;62.66
47374;BME280;33123;50.118;10.272;2022-11-22T11:24:26;96031.50;;;10.83;60.16
47374;BME280;33123;50.118;10.272;2022-11-22T11:26:55;96033.22;;;11.20;57.86
47374;BME280;33123;50.118;10.272;2022-11-22T11:29:32;96018.59;;;11.42;57.61
47374;BME280;33123;50.118;10.272;2022-11-22T11:32:10;96030.84;;;11.51;57.41
47374;BME280;33123;50.118;10.272;2022-11-22T11:34:41;96033.59;;;11.74;56.82
47374;BME280;33123;50.118;10.272;2022-11-22T11:37:20;96033.91;;;12.00;55.81
47374;BME280;33123;50.118;10.272;2022-11-22T11:39:47;96034.28;;;11.93;55.27
47374;BME280;33123;50.118;10.272;2022-11-22T11:42:26;96038.09;;;12.01;55.18
47374;BME280;33123;50.118;10.272;2022-11-22T11:44:54;96008.75;;;11.61;55.43
47374;BME280;33123;50.118;10.272;2022-11-22T11:47:40;96029.84;;;11.75;56.02
47374;BME280;33123;50.118;10.272;2022-11-22T11:50:17;96030.63;;;11.48;56.81
47374;BME280;33123;50.118;10.272;2022-11-22T11:52:49;96035.34;;;11.51;56.53
47374;BME280;33123;50.118;10.272;2022-11-22T11:55:16;96033.13;;;11.25;56.73
47374;BME280;33123;50.118;10.272;2022-11-22T11:57:43;96036.00;;;10.96;57.01
47374;BME280;33123;50.118;10.272;2022-11-22T12:00:20;96024.38;;;10.83;57.12
47374;BME280;33123;50.118;10.272;2022-11-22T12:02:55;95998.88;;;10.79;56.63
47374;BME280;33123;50.118;10.272;2022-11-22T12:05:27;96029.75;;;10.92;57.50
47374;BME280;33123;50.118;10.272;2022-11-22T12:07:54;96017.94;;;10.90;57.44
47374;BME280;33123;50.118;10.272;2022-11-22T12:10:30;96024.28;;;10.89;57.15
47374;BME280;33123;50.118;10.272;2022-11-22T12:13:02;96023.88;;;10.63;56.73
47374;BME280;33123;50.118;10.272;2022-11-22T12:15:48;96016.16;;;10.85;56.97
47374;BME280;33123;50.118;10.272;2022-11-22T12:18:29;96005.06;;;10.69;57.35
47374;BME280;33123;50.118;10.272;2022-11-22T12:21:05;96007.06;;;10.77;56.82
47374;BME280;33123;50.118;10.272;2022-11-22T12:23:43;96005.06;;;11.02;56.47
47374;BME280;33123;50.118;10.272;2022-11-22T12:26:12;96000.81;;;10.87;56.03
47374;BME280;33123;50.118;10.272;2022-11-22T12:28:40;96002.56;;;11.10;55.95
47374;BME280;33123;50.118;10.272;2022-11-22T12:31:22;95977.25;;;11.09;54.93
47374;BME280;33123;50.118;10.272;2022-11-22T12:33:54;96011.28;;;11.52;54.59
47374;BME280;33123;50.118;10.272;2022-11-22T12:36:27;96016.09;;;11.78;53.77
47374;BME280;33123;50.118;10.272;2022-11-22T12:38:55;96007.38;;;11.63;51.97
47374;BME280;33123;50.118;10.272;2022-11-22T12:41:27;96009.16;;;11.82;50.98
47374;BME280;33123;50.118;10.272;2022-11-22T12:43:55;96013.94;;;11.80;51.47
47374;BME280;33123;50.118;10.272;2022-11-22T12:46:29;96005.81;;;12.04;51.75
47374;BME280;33123;50.118;10.272;2022-11-22T12:49:00;95973.56;;;11.93;51.03
47374;BME280;33123;50.118;10.272;2022-11-22T12:51:38;95987.09;;;12.28;50.67
47374;BME280;33123;50.118;10.272;2022-11-22T12:54:13;96004.28;;;12.39;49.99
47374;BME280;33123;50.118;10.272;2022-11-22T12:56:45;96007.16;;;12.15;49.76
47374;BME280;33123;50.118;10.272;2022-11-22T12:59:20;96007.19;;;12.01;48.98
47374;BME280;33123;50.118;10.272;2022-11-22T13:01:57;96003.28;;;11.99;49.56
47374;BME280;33123;50.118;10.272;2022-11-22T13:04:29;95992.13;;;11.88;50.28
47374;BME280;33123;50.118;10.272;2022-11-22T13:07:08;95991.75;;;11.53;50.64
47374;BME280;33123;50.118;10.272;2022-11-22T13:09:42;95991.56;;;11.50;51.38